createdAt,value
2022-10-05T00:01:29.887Z,100678.35
2022-10-05T00:04:09.171Z,100680.08
2022-10-05T00:06:37.878Z,100680.05
2022-10-05T00:09:13.050Z,100675.21
2022-10-05T00:11:41.818Z,100671.54
2022-10-05T00:14:16.818Z,100672.39
2022-10-05T00:16:46.017Z,100673.73
2022-10-05T00:19:32.954Z,100677.30
2022-10-05T00:22:10.736Z,100676.58
2022-10-05T00:24:39.376Z,100672.73
2022-10-05T00:27:16.685Z,100667.51
2022-10-05T00:29:45.781Z,100658.80
2022-10-05T00:32:14.622Z,100653.04
2022-10-05T00:34:44.396Z,100654.92
2022-10-05T00:37:14.926Z,100656.13
2022-10-05T00:39:43.971Z,100655.58
2022-10-05T00:42:29.345Z,100658.48
2022-10-05T00:45:02.556Z,100660.36
2022-10-05T00:47:41.326Z,100661.36
2022-10-05T00:50:25.780Z,100661.86
2022-10-05T00:53:01.324Z,100668.59
2022-10-05T00:55:42.164Z,100676.00
2022-10-05T00:58:23.616Z,100673.72
2022-10-05T01:01:02.087Z,100672.83
2022-10-05T01:03:39.796Z,100671.77
2022-10-05T01:06:18.557Z,100662.92
2022-10-05T01:08:58.001Z,100661.15
2022-10-05T01:11:30.580Z,100664.77
2022-10-05T01:14:08.310Z,100665.30
2022-10-05T01:16:47.927Z,100667.31
2022-10-05T01:19:36.187Z,100670.95
2022-10-05T01:22:15.548Z,100671.45
2022-10-05T01:25:05.274Z,100673.14
2022-10-05T01:27:54.908Z,100668.80
2022-10-05T01:30:24.249Z,100670.36
2022-10-05T01:33:01.926Z,100669.49
2022-10-05T01:35:41.564Z,100669.64
2022-10-05T01:38:24.238Z,100666.69
2022-10-05T01:41:02.047Z,100660.61
2022-10-05T01:43:40.604Z,100657.30
2022-10-05T01:46:23.791Z,100652.60
2022-10-05T01:49:06.411Z,100653.16
2022-10-05T01:51:43.479Z,100666.20
2022-10-05T01:54:26.248Z,100674.38
2022-10-05T01:57:05.274Z,100674.53
2022-10-05T01:59:48.362Z,100675.75
2022-10-05T02:02:19.281Z,100676.48
2022-10-05T02:05:06.470Z,100676.83
2022-10-05T02:07:40.262Z,100679.45
2022-10-05T02:10:18.774Z,100672.02
2022-10-05T02:12:52.426Z,100660.92
2022-10-05T02:15:27.164Z,100659.21
2022-10-05T02:18:10.699Z,100652.81
2022-10-05T02:20:42.905Z,100651.80
2022-10-05T02:23:16.676Z,100646.45
2022-10-05T02:25:49.636Z,100634.33
2022-10-05T02:28:23.610Z,100616.64
2022-10-05T02:30:56.764Z,100603.80
2022-10-05T02:33:29.804Z,100604.33
2022-10-05T02:36:08.127Z,100624.81
2022-10-05T02:38:47.884Z,100627.42
2022-10-05T02:41:26.258Z,100630.52
2022-10-05T02:44:04.183Z,100630.88
2022-10-05T02:46:41.131Z,100614.91
2022-10-05T02:49:21.610Z,100616.12
2022-10-05T02:51:58.005Z,100620.64
2022-10-05T02:54:42.588Z,100633.85
2022-10-05T02:57:20.322Z,100636.35
2022-10-05T02:59:56.938Z,100622.32
2022-10-05T03:02:31.924Z,100625.65
2022-10-05T03:05:12.764Z,100637.33
2022-10-05T03:07:48.797Z,100643.45
2022-10-05T03:10:25.573Z,100654.43
2022-10-05T03:13:02.506Z,100653.56
2022-10-05T03:15:54.827Z,100645.09
2022-10-05T03:18:35.686Z,100649.45
2022-10-05T03:21:14.439Z,100646.52
2022-10-05T03:24:00.597Z,100654.16
2022-10-05T03:26:39.380Z,100657.45
2022-10-05T03:29:20.974Z,100661.08
2022-10-05T03:31:58.231Z,100656.55
2022-10-05T03:34:33.586Z,100652.89
2022-10-05T03:37:10.557Z,100654.93
2022-10-05T03:39:45.282Z,100653.55
2022-10-05T03:42:25.154Z,100649.58
2022-10-05T03:45:02.858Z,100642.64
2022-10-05T03:47:39.788Z,100636.56
2022-10-05T03:50:30.635Z,100629.08
2022-10-05T03:53:05.617Z,100634.63
2022-10-05T03:55:41.427Z,100637.05
2022-10-05T03:58:17.063Z,100639.12
2022-10-05T04:00:52.922Z,100633.20
2022-10-05T04:03:25.976Z,100629.05
2022-10-05T04:05:59.782Z,100622.80
2022-10-05T04:08:38.662Z,100617.39
2022-10-05T04:11:12.706Z,100615.63
2022-10-05T04:13:46.629Z,100615.78
2022-10-05T04:16:21.200Z,100619.57
2022-10-05T04:18:56.386Z,100622.52
2022-10-05T04:21:32.055Z,100625.14
2022-10-05T04:24:04.943Z,100626.71
2022-10-05T04:26:41.349Z,100630.05
2022-10-05T04:29:17.667Z,100630.45
2022-10-05T04:32:03.705Z,100631.52
2022-10-05T04:34:44.632Z,100627.61
2022-10-05T04:37:19.753Z,100633.24
2022-10-05T04:39:58.379Z,100637.30
2022-10-05T04:42:36.136Z,100637.14
2022-10-05T04:45:14.476Z,100635.45
2022-10-05T04:48:03.578Z,100641.20
2022-10-05T04:50:47.873Z,100638.63
2022-10-05T04:53:27.764Z,100636.73
2022-10-05T04:56:02.264Z,100640.92
2022-10-05T04:58:43.833Z,100639.70
2022-10-05T05:01:28.418Z,100642.84
2022-10-05T05:04:13.669Z,100646.48
2022-10-05T05:06:54.658Z,100648.38
2022-10-05T05:09:42.750Z,100656.66
2022-10-05T05:12:25.152Z,100656.11
2022-10-05T05:15:08.047Z,100654.34
2022-10-05T05:17:55.809Z,100654.27
2022-10-05T05:20:35.810Z,100655.55
2022-10-05T05:23:12.618Z,100655.30
2022-10-05T05:25:57.023Z,100651.95
2022-10-05T05:28:35.866Z,100657.75
2022-10-05T05:31:15.436Z,100654.16
2022-10-05T05:33:53.460Z,100655.98
2022-10-05T05:36:55.540Z,100652.11
2022-10-05T05:39:33.704Z,100653.27
2022-10-05T05:42:20.026Z,100643.44
2022-10-05T05:44:53.360Z,100637.48
2022-10-05T05:47:29.151Z,100641.11
2022-10-05T05:50:12.756Z,100650.95
2022-10-05T05:52:49.310Z,100655.26
2022-10-05T05:55:29.060Z,100655.39
2022-10-05T05:58:04.035Z,100656.52
2022-10-05T06:00:38.946Z,100651.02
2022-10-05T06:03:19.259Z,100646.58
2022-10-05T06:05:52.645Z,100657.95
2022-10-05T06:08:29.758Z,100651.59
2022-10-05T06:11:09.981Z,100653.58
2022-10-05T06:13:40.666Z,100650.15
2022-10-05T06:16:18.160Z,100654.70
2022-10-05T06:18:53.442Z,100650.17
2022-10-05T06:21:30.242Z,100652.92
2022-10-05T06:24:04.791Z,100649.43
2022-10-05T06:27:19.967Z,100641.13
2022-10-05T06:30:03.378Z,100639.93
2022-10-05T06:32:36.745Z,100642.36
2022-10-05T06:35:15.612Z,100651.20
2022-10-05T06:38:02.938Z,100646.41
2022-10-05T06:40:47.538Z,100631.68
2022-10-05T06:43:34.926Z,100641.16
2022-10-05T06:46:30.067Z,100649.12
2022-10-05T06:49:23.240Z,100654.32
2022-10-05T06:52:25.269Z,100659.17
2022-10-05T06:55:13.994Z,100665.85
2022-10-05T06:57:55.373Z,100670.40
2022-10-05T07:00:28.793Z,100663.00
2022-10-05T07:03:05.045Z,100666.23
2022-10-05T07:06:06.412Z,100661.66
2022-10-05T07:08:47.323Z,100655.86
2022-10-05T07:11:27.134Z,100653.13
2022-10-05T07:14:11.719Z,100651.05
2022-10-05T07:16:53.963Z,100652.52
2022-10-05T07:19:36.738Z,100655.80
2022-10-05T07:22:29.319Z,100647.32
2022-10-05T07:25:07.836Z,100642.07
2022-10-05T07:27:43.622Z,100650.76
2022-10-05T07:30:14.910Z,100655.16
2022-10-05T07:32:56.444Z,100652.18
2022-10-05T07:35:53.513Z,100645.44
2022-10-05T07:38:31.478Z,100639.71
2022-10-05T07:41:06.847Z,100638.02
2022-10-05T07:46:51.562Z,100636.98
2022-10-05T07:49:32.046Z,100635.91
2022-10-05T07:52:05.314Z,100632.75
2022-10-05T07:54:45.084Z,100629.48
2022-10-05T07:57:21.000Z,100629.23
2022-10-05T07:59:56.581Z,100632.18
2022-10-05T08:02:32.076Z,100628.85
2022-10-05T08:05:05.472Z,100628.48
2022-10-05T08:07:36.386Z,100631.84
2022-10-05T08:10:19.618Z,100632.96
2022-10-05T08:13:06.278Z,100628.88
2022-10-05T08:15:40.313Z,100625.50
2022-10-05T08:18:21.197Z,100615.63
2022-10-05T08:20:54.634Z,100613.17
2022-10-05T08:23:28.014Z,100603.95
2022-10-05T08:26:08.753Z,100608.81
2022-10-05T08:28:42.049Z,100607.63
2022-10-05T08:31:18.942Z,100602.09
2022-10-05T08:33:51.392Z,100595.83
2022-10-05T08:36:28.396Z,100596.30
2022-10-05T08:38:58.630Z,100603.81
2022-10-05T08:42:01.523Z,100607.96
2022-10-05T08:45:03.185Z,100606.24
2022-10-05T08:47:59.601Z,100606.19
2022-10-05T08:50:43.634Z,100608.05
2022-10-05T08:53:41.723Z,100605.27
2022-10-05T08:56:30.139Z,100605.11
2022-10-05T08:59:22.391Z,100603.32
2022-10-05T09:02:17.025Z,100599.00
2022-10-05T09:05:10.876Z,100589.28
2022-10-05T09:08:02.036Z,100579.61
2022-10-05T09:10:58.809Z,100580.82
2022-10-05T09:13:38.279Z,100576.16
2022-10-05T09:16:35.603Z,100573.66
2022-10-05T09:19:40.222Z,100557.04
2022-10-05T09:22:15.763Z,100553.27
2022-10-05T09:24:55.091Z,100549.80
2022-10-05T09:27:37.578Z,100552.23
2022-10-05T09:30:20.054Z,100555.11
2022-10-05T09:33:38.455Z,100559.73
2022-10-05T09:36:38.557Z,100559.80
2022-10-05T09:39:39.577Z,100548.79
2022-10-05T09:42:27.733Z,100546.66
2022-10-05T09:45:31.379Z,100554.42
2022-10-05T09:48:41.342Z,100558.64
2022-10-05T09:51:42.700Z,100564.98
2022-10-05T09:54:46.985Z,100565.42
2022-10-05T09:57:41.774Z,100566.61
2022-10-05T10:00:21.243Z,100561.08
2022-10-05T10:03:24.296Z,100564.42
2022-10-05T10:06:14.381Z,100573.03
2022-10-05T10:09:03.772Z,100570.04
2022-10-05T10:11:44.787Z,100575.41
2022-10-05T10:14:55.764Z,100583.98
2022-10-05T10:17:47.167Z,100585.64
2022-10-05T10:20:30.812Z,100587.27
2022-10-05T10:23:14.715Z,100583.53
2022-10-05T10:26:02.356Z,100590.82
2022-10-05T10:28:55.875Z,100583.78
2022-10-05T10:31:53.491Z,100577.64
2022-10-05T10:34:42.089Z,100568.58
2022-10-05T10:37:36.606Z,100560.73
2022-10-05T10:40:20.783Z,100558.60
2022-10-05T10:43:08.897Z,100554.10
2022-10-05T10:45:50.512Z,100550.11
2022-10-05T10:48:56.844Z,100539.19
2022-10-05T10:51:48.957Z,100529.37
2022-10-05T10:55:03.762Z,100522.33
2022-10-05T10:57:49.451Z,100519.27
2022-10-05T11:00:45.591Z,100516.16
2022-10-05T11:03:48.474Z,100522.14
2022-10-05T11:06:39.611Z,100520.52
2022-10-05T11:09:34.546Z,100508.33
2022-10-05T11:12:34.746Z,100506.88
2022-10-05T11:15:29.025Z,100508.94
2022-10-05T11:18:15.797Z,100513.20
2022-10-05T11:21:20.625Z,100509.83
2022-10-05T11:24:38.388Z,100511.33
2022-10-05T11:27:37.147Z,100509.62
2022-10-05T11:30:50.473Z,100505.33
2022-10-05T11:33:48.519Z,100510.08
2022-10-05T11:36:42.372Z,100505.75
2022-10-05T11:39:41.025Z,100503.39
2022-10-05T11:42:42.785Z,100508.93
2022-10-05T11:45:25.070Z,100501.85
2022-10-05T11:48:28.954Z,100497.49
2022-10-05T11:51:34.278Z,100495.73
2022-10-05T11:54:17.098Z,100501.41
2022-10-05T11:56:54.703Z,100503.02
2022-10-05T11:59:34.518Z,100490.65
2022-10-05T12:02:15.944Z,100489.27
2022-10-05T12:04:52.176Z,100497.33
2022-10-05T12:07:31.103Z,100500.10
2022-10-05T12:10:16.465Z,100501.00
2022-10-05T12:12:58.821Z,100503.38
2022-10-05T12:15:34.672Z,100501.76
2022-10-05T12:18:12.911Z,100508.56
2022-10-05T12:20:49.698Z,100503.83
2022-10-05T12:23:24.331Z,100493.66
2022-10-05T12:26:01.039Z,100494.00
2022-10-05T12:28:36.319Z,100493.08
2022-10-05T12:31:18.833Z,100497.63
2022-10-05T12:33:56.643Z,100495.31
2022-10-05T12:36:59.202Z,100498.80
2022-10-05T12:39:31.133Z,100500.35
2022-10-05T12:42:12.120Z,100500.81
2022-10-05T12:45:03.715Z,100497.59
2022-10-05T12:47:44.524Z,100498.85
2022-10-05T12:50:26.633Z,100498.23
2022-10-05T12:53:07.951Z,100495.16
2022-10-05T12:55:47.586Z,100492.44
2022-10-05T12:58:27.317Z,100493.13
2022-10-05T13:01:06.048Z,100494.27
2022-10-05T13:03:39.108Z,100492.48
2022-10-05T13:06:17.567Z,100495.66
2022-10-05T13:08:55.835Z,100490.88
2022-10-05T13:11:35.846Z,100495.10
2022-10-05T13:14:15.834Z,100492.33
2022-10-05T13:16:54.748Z,100491.36
2022-10-05T13:19:34.303Z,100491.13
2022-10-05T13:22:18.266Z,100492.94
2022-10-05T13:24:59.459Z,100490.59
2022-10-05T13:27:34.817Z,100490.05
2022-10-05T13:30:13.369Z,100482.27
2022-10-05T13:32:45.761Z,100489.29
2022-10-05T13:35:37.804Z,100492.55
2022-10-05T13:38:20.686Z,100493.79
2022-10-05T13:40:58.476Z,100486.29
2022-10-05T13:46:22.913Z,100490.54
2022-10-05T13:49:03.426Z,100489.81
2022-10-05T13:51:45.614Z,100497.14
2022-10-05T13:54:23.053Z,100501.41
2022-10-05T13:56:58.923Z,100493.84
2022-10-05T13:59:38.106Z,100481.02
2022-10-05T14:02:10.816Z,100479.14
2022-10-05T14:04:50.941Z,100476.14
2022-10-05T14:07:30.033Z,100472.52
2022-10-05T14:10:00.859Z,100468.52
2022-10-05T14:12:37.707Z,100469.92
2022-10-05T14:15:23.027Z,100462.44
2022-10-05T14:17:54.182Z,100459.72
2022-10-05T14:20:25.616Z,100456.27
2022-10-05T14:22:59.648Z,100462.48
2022-10-05T14:25:29.847Z,100455.29
2022-10-05T14:28:20.509Z,100454.00
2022-10-05T14:30:59.313Z,100456.75
2022-10-05T14:33:33.573Z,100459.77
2022-10-05T14:36:02.779Z,100458.21
2022-10-05T14:38:49.767Z,100453.49
2022-10-05T14:41:20.471Z,100457.88
2022-10-05T14:43:55.264Z,100461.70
2022-10-05T14:46:29.310Z,100463.08
2022-10-05T14:49:13.234Z,100462.01
2022-10-05T14:51:55.983Z,100460.41
2022-10-05T14:54:45.134Z,100461.81
2022-10-05T14:57:24.796Z,100464.73
2022-10-05T15:00:03.961Z,100463.79
2022-10-05T15:02:53.623Z,100458.13
2022-10-05T15:05:30.804Z,100458.30
2022-10-05T15:08:12.345Z,100453.92
2022-10-05T15:11:01.817Z,100443.02
2022-10-05T15:13:36.236Z,100440.40
2022-10-05T15:16:14.395Z,100443.40
2022-10-05T15:18:48.592Z,100443.55
2022-10-05T15:21:34.628Z,100440.67
2022-10-05T15:24:09.198Z,100441.70
2022-10-05T15:26:50.019Z,100444.52
2022-10-05T15:29:44.318Z,100443.38
2022-10-05T15:32:28.252Z,100441.42
2022-10-05T15:35:26.227Z,100429.30
2022-10-05T15:38:01.175Z,100431.58
2022-10-05T15:40:39.716Z,100428.08
2022-10-05T15:43:15.483Z,100427.70
2022-10-05T15:45:55.969Z,100423.11
2022-10-05T15:48:36.132Z,100422.56
2022-10-05T15:51:16.096Z,100420.98
2022-10-05T15:54:14.599Z,100432.67
2022-10-05T15:56:50.694Z,100449.27
2022-10-05T15:59:26.706Z,100434.66
2022-10-05T16:02:00.966Z,100429.15
2022-10-05T16:04:44.805Z,100437.34
2022-10-05T16:07:38.377Z,100443.05
2022-10-05T16:10:15.990Z,100437.31
2022-10-05T16:12:57.008Z,100428.41
2022-10-05T16:15:33.246Z,100426.23
2022-10-05T16:18:22.903Z,100426.13
2022-10-05T16:20:59.462Z,100419.42
2022-10-05T16:23:38.484Z,100415.36
2022-10-05T16:26:23.347Z,100408.17
2022-10-05T16:29:04.172Z,100414.42
2022-10-05T16:31:40.415Z,100412.09
2022-10-05T16:34:23.233Z,100405.92
2022-10-05T16:37:03.304Z,100407.77
2022-10-05T16:39:47.969Z,100401.93
2022-10-05T16:42:29.154Z,100398.92
2022-10-05T16:45:07.926Z,100397.69
2022-10-05T16:47:46.908Z,100401.34
2022-10-05T16:50:23.323Z,100400.20
2022-10-05T16:52:58.973Z,100396.46
2022-10-05T16:55:34.708Z,100396.34
2022-10-05T16:58:11.690Z,100393.78
2022-10-05T17:00:51.439Z,100400.19
2022-10-05T17:03:34.085Z,100396.12
2022-10-05T17:06:39.417Z,100400.64
2022-10-05T17:09:32.723Z,100404.89
2022-10-05T17:12:21.403Z,100406.05
2022-10-05T17:15:09.637Z,100409.08
2022-10-05T17:18:03.085Z,100411.07
2022-10-05T17:20:44.395Z,100413.55
2022-10-05T17:23:31.484Z,100410.98
2022-10-05T17:26:16.190Z,100414.92
2022-10-05T17:29:00.722Z,100408.89
2022-10-05T17:31:31.483Z,100406.83
2022-10-05T17:34:25.677Z,100397.48
2022-10-05T17:36:59.222Z,100395.45
2022-10-05T17:39:50.305Z,100393.38
2022-10-05T17:42:47.677Z,100395.03
2022-10-05T17:45:52.342Z,100396.66
2022-10-05T17:48:42.417Z,100397.27
2022-10-05T17:51:57.513Z,100397.71
2022-10-05T17:54:48.137Z,100387.98
2022-10-05T17:57:21.727Z,100390.49
2022-10-05T18:00:00.414Z,100388.66
2022-10-05T18:02:50.155Z,100388.52
2022-10-05T18:05:27.245Z,100385.30
2022-10-05T18:08:36.610Z,100387.83
2022-10-05T18:11:16.496Z,100392.69
2022-10-05T18:13:49.398Z,100391.39
2022-10-05T18:16:50.462Z,100388.65
2022-10-05T18:19:22.827Z,100383.33
2022-10-05T18:22:26.926Z,100386.69
2022-10-05T18:25:05.298Z,100380.15
2022-10-05T18:28:00.210Z,100381.61
2022-10-05T18:30:38.676Z,100382.01
2022-10-05T18:33:31.897Z,100382.70
2022-10-05T18:36:18.506Z,100380.57
2022-10-05T18:38:55.916Z,100380.58
2022-10-05T18:41:36.718Z,100381.09
2022-10-05T18:44:23.556Z,100378.82
2022-10-05T18:47:00.701Z,100382.70
2022-10-05T18:49:42.401Z,100383.27
2022-10-05T18:52:20.065Z,100389.31
2022-10-05T18:54:59.419Z,100386.30
2022-10-05T18:57:44.385Z,100386.28
2022-10-05T19:00:17.424Z,100389.42
2022-10-05T19:02:51.353Z,100389.23
2022-10-05T19:05:47.876Z,100382.78
2022-10-05T19:08:32.217Z,100381.92
2022-10-05T19:11:13.378Z,100374.64
2022-10-05T19:13:50.422Z,100372.48
2022-10-05T19:16:37.286Z,100373.23
2022-10-05T19:19:33.101Z,100374.98
2022-10-05T19:22:10.005Z,100371.20
2022-10-05T19:24:59.657Z,100375.11
2022-10-05T19:27:39.468Z,100374.80
2022-10-05T19:30:20.438Z,100371.70
2022-10-05T19:33:18.204Z,100371.02
2022-10-05T19:35:57.727Z,100369.02
2022-10-05T19:38:35.824Z,100377.11
2022-10-05T19:41:14.132Z,100379.59
2022-10-05T19:44:08.031Z,100382.23
2022-10-05T19:46:53.305Z,100382.65
2022-10-05T19:49:58.797Z,100382.01
2022-10-05T19:52:37.205Z,100379.08
2022-10-05T19:55:14.778Z,100379.15
2022-10-05T19:57:51.994Z,100380.48
2022-10-05T20:00:26.462Z,100382.38
2022-10-05T20:03:11.322Z,100383.31
2022-10-05T20:05:40.503Z,100386.39
2022-10-05T20:08:16.903Z,100382.30
2022-10-05T20:11:03.369Z,100384.27
2022-10-05T20:13:34.536Z,100383.34
2022-10-05T20:16:46.750Z,100384.79
2022-10-05T20:19:53.557Z,100384.50
2022-10-05T20:22:32.673Z,100385.83
2022-10-05T20:25:32.854Z,100387.11
2022-10-05T20:28:02.471Z,100392.23
2022-10-05T20:30:33.361Z,100389.32
2022-10-05T20:33:04.120Z,100390.74
2022-10-05T20:35:33.056Z,100396.23
2022-10-05T20:38:13.895Z,100399.63
2022-10-05T20:40:42.668Z,100399.71
2022-10-05T20:43:11.887Z,100398.40
2022-10-05T20:45:42.769Z,100401.45
2022-10-05T20:48:13.581Z,100400.15
2022-10-05T20:50:43.123Z,100401.80
2022-10-05T20:53:12.616Z,100401.36
2022-10-05T20:55:42.529Z,100397.80
2022-10-05T20:58:11.346Z,100402.71
2022-10-05T21:01:00.770Z,100407.88
2022-10-05T21:03:30.298Z,100402.77
2022-10-05T21:05:59.211Z,100407.21
2022-10-05T21:08:28.471Z,100412.36
2022-10-05T21:10:57.513Z,100410.88
2022-10-05T21:13:26.561Z,100412.34
2022-10-05T21:15:56.012Z,100413.09
2022-10-05T21:18:25.174Z,100418.20
2022-10-05T21:20:57.555Z,100419.30
2022-10-05T21:23:28.979Z,100421.60
2022-10-05T21:25:57.848Z,100419.42
2022-10-05T21:28:27.251Z,100420.57
2022-10-05T21:30:56.670Z,100421.00
2022-10-05T21:33:26.127Z,100423.70
2022-10-05T21:35:55.202Z,100424.30
2022-10-05T21:38:24.312Z,100428.77
2022-10-05T21:41:08.567Z,100431.33
2022-10-05T21:43:37.350Z,100428.63
2022-10-05T21:46:07.349Z,100431.14
2022-10-05T21:48:37.796Z,100433.89
2022-10-05T21:51:09.461Z,100428.54
2022-10-05T21:53:42.257Z,100427.79
2022-10-05T21:56:14.408Z,100434.14
2022-10-05T21:58:46.444Z,100427.48
2022-10-05T22:01:18.862Z,100434.55
2022-10-05T22:03:51.315Z,100429.21
2022-10-05T22:06:20.187Z,100431.55
2022-10-05T22:08:49.087Z,100425.67
2022-10-05T22:11:18.590Z,100428.55
2022-10-05T22:13:49.395Z,100429.50
2022-10-05T22:16:20.581Z,100428.06
2022-10-05T22:18:49.593Z,100432.83
2022-10-05T22:21:20.490Z,100430.48
2022-10-05T22:23:49.322Z,100431.63
2022-10-05T22:26:21.417Z,100428.02
2022-10-05T22:28:54.906Z,100427.76
2022-10-05T22:31:23.963Z,100425.08
2022-10-05T22:33:53.071Z,100424.64
2022-10-05T22:36:22.137Z,100425.59
2022-10-05T22:38:51.327Z,100423.96
2022-10-05T22:41:20.490Z,100424.05
2022-10-05T22:43:50.347Z,100423.43
2022-10-05T22:46:19.290Z,100423.19
2022-10-05T22:48:48.163Z,100427.74
2022-10-05T22:51:17.646Z,100427.96
2022-10-05T22:53:46.567Z,100429.43
2022-10-05T22:56:15.603Z,100429.49
2022-10-05T22:58:45.273Z,100430.10
2022-10-05T23:01:18.113Z,100430.88
2022-10-05T23:03:47.228Z,100436.36
2022-10-05T23:06:18.087Z,100433.98
2022-10-05T23:08:47.401Z,100436.19
2022-10-05T23:11:18.729Z,100432.79
2022-10-05T23:13:51.787Z,100441.39
2022-10-05T23:16:22.629Z,100441.30
2022-10-05T23:18:53.246Z,100441.08
2022-10-05T23:21:23.954Z,100440.98
2022-10-05T23:23:52.971Z,100446.33
2022-10-05T23:26:23.575Z,100450.25
2022-10-05T23:28:52.795Z,100457.80
2022-10-05T23:31:24.694Z,100450.73
2022-10-05T23:33:53.470Z,100451.98
2022-10-05T23:36:24.503Z,100455.33
2022-10-05T23:38:54.512Z,100453.82
2022-10-05T23:41:24.846Z,100455.79
2022-10-05T23:43:54.612Z,100455.46
2022-10-05T23:46:23.400Z,100450.27
2022-10-05T23:48:53.038Z,100451.19
2022-10-05T23:51:21.912Z,100448.94
2022-10-05T23:53:51.482Z,100446.33
2022-10-05T23:56:20.715Z,100449.68
2022-10-05T23:58:49.374Z,100450.04
